sensor_id;sensor_type;location;lat;lon;timestamp;pressure;altitude;pressure_sealevel;temperature;humidity
46756;BME280;32506;52.826;-1.192;2022-07-10T00:01:15;102283.44;;;17.23;37.73
46756;BME280;32506;52.826;-1.192;2022-07-10T00:03:41;102287.84;;;17.18;37.80
46756;BME280;32506;52.826;-1.192;2022-07-10T00:06:09;102277.66;;;17.13;37.63
46756;BME280;32506;52.826;-1.192;2022-07-10T00:08:35;102273.94;;;17.07;37.67
46756;BME280;32506;52.826;-1.192;2022-07-10T00:11:00;102274.59;;;17.03;37.92
46756;BME280;32506;52.826;-1.192;2022-07-10T00:13:26;102276.28;;;16.97;37.86
46756;BME280;32506;52.826;-1.192;2022-07-10T00:15:51;102266.94;;;16.93;37.75
46756;BME280;32506;52.826;-1.192;2022-07-10T00:18:17;102272.13;;;16.88;37.85
46756;BME280;32506;52.826;-1.192;2022-07-10T00:20:42;102263.84;;;16.83;37.74
46756;BME280;32506;52.826;-1.192;2022-07-10T00:23:08;102258.25;;;16.77;37.89
46756;BME280;32506;52.826;-1.192;2022-07-10T00:25:33;102254.56;;;16.72;38.01
46756;BME280;32506;52.826;-1.192;2022-07-10T00:27:59;102252.47;;;16.67;37.84
46756;BME280;32506;52.826;-1.192;2022-07-10T00:30:24;102252.28;;;16.62;37.86
46756;BME280;32506;52.826;-1.192;2022-07-10T00:32:50;102256.44;;;16.58;37.96
46756;BME280;32506;52.826;-1.192;2022-07-10T00:35:15;102255.22;;;16.54;38.06
46756;BME280;32506;52.826;-1.192;2022-07-10T00:37:41;102255.66;;;16.51;38.02
46756;BME280;32506;52.826;-1.192;2022-07-10T00:40:07;102251.31;;;16.43;38.12
46756;BME280;32506;52.826;-1.192;2022-07-10T00:42:32;102250.06;;;16.39;38.09
46756;BME280;32506;52.826;-1.192;2022-07-10T00:44:58;102247.97;;;16.34;37.99
46756;BME280;32506;52.826;-1.192;2022-07-10T00:47:24;102243.22;;;16.30;38.12
46756;BME280;32506;52.826;-1.192;2022-07-10T00:49:49;102250.09;;;16.25;38.21
46756;BME280;32506;52.826;-1.192;2022-07-10T00:52:16;102244.28;;;16.22;38.21
46756;BME280;32506;52.826;-1.192;2022-07-10T00:54:44;102246.78;;;16.17;38.21
46756;BME280;32506;52.826;-1.192;2022-07-10T00:57:12;102244.50;;;16.14;37.99
46756;BME280;32506;52.826;-1.192;2022-07-10T00:59:39;102239.13;;;16.07;38.39
46756;BME280;32506;52.826;-1.192;2022-07-10T01:02:05;102243.91;;;16.05;38.51
46756;BME280;32506;52.826;-1.192;2022-07-10T01:04:31;102237.28;;;16.01;38.78
46756;BME280;32506;52.826;-1.192;2022-07-10T01:06:58;102238.69;;;15.97;38.71
46756;BME280;32506;52.826;-1.192;2022-07-10T01:09:23;102236.63;;;15.92;38.98
46756;BME280;32506;52.826;-1.192;2022-07-10T01:11:49;102229.78;;;15.89;39.37
46756;BME280;32506;52.826;-1.192;2022-07-10T01:14:16;102232.91;;;15.86;39.28
46756;BME280;32506;52.826;-1.192;2022-07-10T01:16:41;102226.28;;;15.82;39.42
46756;BME280;32506;52.826;-1.192;2022-07-10T01:19:07;102232.88;;;15.80;39.36
46756;BME280;32506;52.826;-1.192;2022-07-10T01:21:34;102226.25;;;15.75;39.41
46756;BME280;32506;52.826;-1.192;2022-07-10T01:24:04;102239.31;;;15.72;39.11
46756;BME280;32506;52.826;-1.192;2022-07-10T01:26:31;102226.47;;;15.67;39.36
46756;BME280;32506;52.826;-1.192;2022-07-10T01:28:56;102231.22;;;15.65;39.22
46756;BME280;32506;52.826;-1.192;2022-07-10T01:31:26;102224.59;;;15.61;39.43
46756;BME280;32506;52.826;-1.192;2022-07-10T01:33:52;102223.34;;;15.57;39.76
46756;BME280;32506;52.826;-1.192;2022-07-10T01:36:19;102227.28;;;15.54;39.96
46756;BME280;32506;52.826;-1.192;2022-07-10T01:38:45;102227.69;;;15.51;39.91
46756;BME280;32506;52.826;-1.192;2022-07-10T01:41:11;102228.06;;;15.48;39.81
46756;BME280;32506;52.826;-1.192;2022-07-10T01:43:37;102222.28;;;15.44;40.01
46756;BME280;32506;52.826;-1.192;2022-07-10T01:46:03;102219.38;;;15.39;40.07
46756;BME280;32506;52.826;-1.192;2022-07-10T01:48:30;102221.22;;;15.39;40.36
46756;BME280;32506;52.826;-1.192;2022-07-10T01:50:56;102223.53;;;15.35;40.54
46756;BME280;32506;52.826;-1.192;2022-07-10T01:53:22;102220.41;;;15.32;40.73
46756;BME280;32506;52.826;-1.192;2022-07-10T01:55:47;102219.78;;;15.30;40.85
46756;BME280;32506;52.826;-1.192;2022-07-10T01:58:13;102221.84;;;15.27;41.40
46756;BME280;32506;52.826;-1.192;2022-07-10T02:00:39;102216.88;;;15.24;41.15
46756;BME280;32506;52.826;-1.192;2022-07-10T02:03:04;102210.84;;;15.22;41.80
46756;BME280;32506;52.826;-1.192;2022-07-10T02:05:48;102212.28;;;15.18;41.59
46756;BME280;32506;52.826;-1.192;2022-07-10T02:08:14;102214.38;;;15.16;42.00
46756;BME280;32506;52.826;-1.192;2022-07-10T02:10:39;102214.53;;;15.15;42.11
46756;BME280;32506;52.826;-1.192;2022-07-10T02:13:05;102214.16;;;15.11;42.21
46756;BME280;32506;52.826;-1.192;2022-07-10T02:15:30;102213.50;;;15.09;42.05
46756;BME280;32506;52.826;-1.192;2022-07-10T02:17:56;102210.41;;;15.05;42.23
46756;BME280;32506;52.826;-1.192;2022-07-10T02:20:21;102215.97;;;15.04;42.37
46756;BME280;32506;52.826;-1.192;2022-07-10T02:22:46;102211.00;;;15.01;42.56
46756;BME280;32506;52.826;-1.192;2022-07-10T02:25:12;102201.47;;;14.98;43.04
46756;BME280;32506;52.826;-1.192;2022-07-10T02:27:37;102210.78;;;14.96;43.10
46756;BME280;32506;52.826;-1.192;2022-07-10T02:30:03;102200.41;;;14.92;43.34
46756;BME280;32506;52.826;-1.192;2022-07-10T02:32:29;102205.16;;;14.90;42.88
46756;BME280;32506;52.826;-1.192;2022-07-10T02:34:54;102204.56;;;14.88;42.82
46756;BME280;32506;52.826;-1.192;2022-07-10T02:37:20;102195.84;;;14.86;42.90
46756;BME280;32506;52.826;-1.192;2022-07-10T02:39:45;102197.06;;;14.84;42.88
46756;BME280;32506;52.826;-1.192;2022-07-10T02:42:11;102201.84;;;14.82;42.97
46756;BME280;32506;52.826;-1.192;2022-07-10T02:44:36;102196.66;;;14.80;42.69
46756;BME280;32506;52.826;-1.192;2022-07-10T02:47:02;102198.91;;;14.76;42.92
46756;BME280;32506;52.826;-1.192;2022-07-10T02:49:28;102195.59;;;14.74;42.90
46756;BME280;32506;52.826;-1.192;2022-07-10T02:51:53;102194.16;;;14.72;43.05
46756;BME280;32506;52.826;-1.192;2022-07-10T02:54:18;102190.00;;;14.69;42.90
46756;BME280;32506;52.826;-1.192;2022-07-10T02:56:44;102187.50;;;14.68;42.69
46756;BME280;32506;52.826;-1.192;2022-07-10T02:59:09;102187.88;;;14.65;42.34
46756;BME280;32506;52.826;-1.192;2022-07-10T03:01:35;102190.78;;;14.63;42.46
46756;BME280;32506;52.826;-1.192;2022-07-10T03:04:00;102186.41;;;14.62;42.23
46756;BME280;32506;52.826;-1.192;2022-07-10T03:06:26;102187.00;;;14.57;42.15
46756;BME280;32506;52.826;-1.192;2022-07-10T03:08:52;102189.91;;;14.56;42.08
46756;BME280;32506;52.826;-1.192;2022-07-10T03:11:17;102180.38;;;14.53;41.84
46756;BME280;32506;52.826;-1.192;2022-07-10T03:13:43;102181.59;;;14.51;41.74
46756;BME280;32506;52.826;-1.192;2022-07-10T03:16:08;102183.66;;;14.49;41.68
46756;BME280;32506;52.826;-1.192;2022-07-10T03:18:34;102184.06;;;14.46;41.50
46756;BME280;32506;52.826;-1.192;2022-07-10T03:20:59;102187.97;;;14.43;41.66
46756;BME280;32506;52.826;-1.192;2022-07-10T03:23:25;102190.03;;;14.41;41.60
46756;BME280;32506;52.826;-1.192;2022-07-10T03:25:51;102188.38;;;14.40;41.64
46756;BME280;32506;52.826;-1.192;2022-07-10T03:28:16;102187.94;;;14.36;41.39
46756;BME280;32506;52.826;-1.192;2022-07-10T03:30:42;102198.06;;;14.34;41.71
46756;BME280;32506;52.826;-1.192;2022-07-10T03:33:07;102194.75;;;14.32;41.45
46756;BME280;32506;52.826;-1.192;2022-07-10T03:35:33;102185.22;;;14.30;41.87
46756;BME280;32506;52.826;-1.192;2022-07-10T03:37:58;102186.44;;;14.27;41.97
46756;BME280;32506;52.826;-1.192;2022-07-10T03:40:24;102179.38;;;14.26;41.87
46756;BME280;32506;52.826;-1.192;2022-07-10T03:42:51;102171.72;;;14.23;41.83
46756;BME280;32506;52.826;-1.192;2022-07-10T03:45:17;102174.63;;;14.21;41.92
46756;BME280;32506;52.826;-1.192;2022-07-10T03:47:42;102181.03;;;14.20;41.71
46756;BME280;32506;52.826;-1.192;2022-07-10T03:50:08;102178.72;;;14.17;41.80
46756;BME280;32506;52.826;-1.192;2022-07-10T03:52:34;102171.88;;;14.15;41.96
46756;BME280;32506;52.826;-1.192;2022-07-10T03:55:00;102171.25;;;14.13;42.10
46756;BME280;32506;52.826;-1.192;2022-07-10T03:57:25;102165.25;;;14.10;42.15
46756;BME280;32506;52.826;-1.192;2022-07-10T04:00:10;102168.13;;;14.09;42.07
46756;BME280;32506;52.826;-1.192;2022-07-10T04:02:36;102162.97;;;14.07;42.07
46756;BME280;32506;52.826;-1.192;2022-07-10T04:05:05;102166.88;;;14.05;42.17
46756;BME280;32506;52.826;-1.192;2022-07-10T04:07:31;102161.69;;;14.03;42.89
46756;BME280;32506;52.826;-1.192;2022-07-10T04:09:57;102160.03;;;14.02;42.26
46756;BME280;32506;52.826;-1.192;2022-07-10T04:12:22;102162.06;;;14.00;42.12
46756;BME280;32506;52.826;-1.192;2022-07-10T04:14:48;102163.09;;;13.99;42.22
46756;BME280;32506;52.826;-1.192;2022-07-10T04:17:17;102160.59;;;13.98;41.69
46756;BME280;32506;52.826;-1.192;2022-07-10T04:19:42;102162.69;;;13.96;41.63
46756;BME280;32506;52.826;-1.192;2022-07-10T04:22:08;102162.88;;;13.94;41.35
46756;BME280;32506;52.826;-1.192;2022-07-10T04:24:33;102161.22;;;13.93;41.38
46756;BME280;32506;52.826;-1.192;2022-07-10T04:26:59;102162.22;;;13.92;41.45
46756;BME280;32506;52.826;-1.192;2022-07-10T04:29:24;102159.75;;;13.90;41.61
46756;BME280;32506;52.826;-1.192;2022-07-10T04:31:50;102152.72;;;13.89;41.28
46756;BME280;32506;52.826;-1.192;2022-07-10T04:34:15;102157.25;;;13.89;41.28
46756;BME280;32506;52.826;-1.192;2022-07-10T04:36:40;102151.25;;;13.87;41.37
46756;BME280;32506;52.826;-1.192;2022-07-10T04:39:06;102156.63;;;13.87;41.32
46756;BME280;32506;52.826;-1.192;2022-07-10T04:41:31;102154.13;;;13.85;41.00
46756;BME280;32506;52.826;-1.192;2022-07-10T04:43:57;102154.13;;;13.85;40.92
46756;BME280;32506;52.826;-1.192;2022-07-10T04:46:22;102145.44;;;13.83;41.30
46756;BME280;32506;52.826;-1.192;2022-07-10T04:48:48;102161.56;;;13.83;41.19
46756;BME280;32506;52.826;-1.192;2022-07-10T04:51:13;102154.53;;;13.82;40.98
46756;BME280;32506;52.826;-1.192;2022-07-10T04:53:39;102161.56;;;13.83;40.97
46756;BME280;32506;52.826;-1.192;2022-07-10T04:56:04;102157.22;;;13.82;40.92
46756;BME280;32506;52.826;-1.192;2022-07-10T04:58:30;102157.22;;;13.82;40.75
46756;BME280;32506;52.826;-1.192;2022-07-10T05:00:55;102157.22;;;13.82;40.75
46756;BME280;32506;52.826;-1.192;2022-07-10T05:03:21;102153.69;;;13.82;40.45
46756;BME280;32506;52.826;-1.192;2022-07-10T05:05:46;102153.69;;;13.82;40.42
46756;BME280;32506;52.826;-1.192;2022-07-10T05:08:12;102151.00;;;13.82;40.66
46756;BME280;32506;52.826;-1.192;2022-07-10T05:10:37;102146.66;;;13.81;40.67
46756;BME280;32506;52.826;-1.192;2022-07-10T05:13:03;102151.84;;;13.82;40.38
46756;BME280;32506;52.826;-1.192;2022-07-10T05:15:28;102149.97;;;13.83;40.67
46756;BME280;32506;52.826;-1.192;2022-07-10T05:17:54;102137.38;;;13.83;40.51
46756;BME280;32506;52.826;-1.192;2022-07-10T05:20:19;102138.19;;;13.84;40.75
46756;BME280;32506;52.826;-1.192;2022-07-10T05:22:45;102148.75;;;13.85;41.36
46756;BME280;32506;52.826;-1.192;2022-07-10T05:25:10;102151.25;;;13.87;41.18
46756;BME280;32506;52.826;-1.192;2022-07-10T05:27:36;102144.84;;;13.88;41.01
46756;BME280;32506;52.826;-1.192;2022-07-10T05:30:01;102145.66;;;13.88;41.29
46756;BME280;32506;52.826;-1.192;2022-07-10T05:32:27;102159.75;;;13.90;41.32
46756;BME280;32506;52.826;-1.192;2022-07-10T05:34:52;102156.84;;;13.92;40.99
46756;BME280;32506;52.826;-1.192;2022-07-10T05:37:18;102158.31;;;13.95;41.03
46756;BME280;32506;52.826;-1.192;2022-07-10T05:39:43;102156.28;;;13.97;41.89
46756;BME280;32506;52.826;-1.192;2022-07-10T05:42:09;102159.38;;;14.00;41.89
46756;BME280;32506;52.826;-1.192;2022-07-10T05:44:34;102165.41;;;14.02;41.97
46756;BME280;32506;52.826;-1.192;2022-07-10T05:46:59;102157.16;;;14.04;41.52
46756;BME280;32506;52.826;-1.192;2022-07-10T05:49:25;102162.13;;;14.07;41.72
46756;BME280;32506;52.826;-1.192;2022-07-10T05:51:50;102160.06;;;14.09;42.04
46756;BME280;32506;52.826;-1.192;2022-07-10T05:54:16;102154.09;;;14.14;41.88
46756;BME280;32506;52.826;-1.192;2022-07-10T05:56:41;102153.06;;;14.15;42.20
46756;BME280;32506;52.826;-1.192;2022-07-10T05:59:06;102151.66;;;14.19;42.15
46756;BME280;32506;52.826;-1.192;2022-07-10T06:01:32;102156.63;;;14.22;42.33
46756;BME280;32506;52.826;-1.192;2022-07-10T06:03:57;102157.06;;;14.25;42.11
46756;BME280;32506;52.826;-1.192;2022-07-10T06:06:23;102158.53;;;14.28;42.45
46756;BME280;32506;52.826;-1.192;2022-07-10T06:08:49;102154.41;;;14.32;42.41
46756;BME280;32506;52.826;-1.192;2022-07-10T06:11:14;102153.81;;;14.37;42.69
46756;BME280;32506;52.826;-1.192;2022-07-10T06:13:41;102155.25;;;14.39;42.86
46756;BME280;32506;52.826;-1.192;2022-07-10T06:16:06;102148.66;;;14.42;43.20
46756;BME280;32506;52.826;-1.192;2022-07-10T06:18:32;102147.22;;;14.46;43.05
46756;BME280;32506;52.826;-1.192;2022-07-10T06:20:57;102139.59;;;14.50;43.26
46756;BME280;32506;52.826;-1.192;2022-07-10T06:23:23;102144.38;;;14.54;43.50
46756;BME280;32506;52.826;-1.192;2022-07-10T06:25:49;102145.81;;;14.57;44.17
46756;BME280;32506;52.826;-1.192;2022-07-10T06:28:15;102142.53;;;14.62;44.00
46756;BME280;32506;52.826;-1.192;2022-07-10T06:30:42;102146.72;;;14.64;44.19
46756;BME280;32506;52.826;-1.192;2022-07-10T06:33:07;102144.47;;;14.68;43.87
46756;BME280;32506;52.826;-1.192;2022-07-10T06:35:33;102135.75;;;14.72;43.97
46756;BME280;32506;52.826;-1.192;2022-07-10T06:37:58;102141.56;;;14.76;44.14
46756;BME280;32506;52.826;-1.192;2022-07-10T06:40:24;102144.69;;;14.80;44.24
46756;BME280;32506;52.826;-1.192;2022-07-10T06:42:50;102136.00;;;14.84;44.68
46756;BME280;32506;52.826;-1.192;2022-07-10T06:45:15;102133.72;;;14.88;45.08
46756;BME280;32506;52.826;-1.192;2022-07-10T06:47:41;102133.94;;;14.93;44.84
46756;BME280;32506;52.826;-1.192;2022-07-10T06:50:22;102134.16;;;14.98;44.63
46756;BME280;32506;52.826;-1.192;2022-07-10T06:52:51;102127.97;;;15.04;44.95
46756;BME280;32506;52.826;-1.192;2022-07-10T06:55:18;102132.50;;;15.10;44.76
46756;BME280;32506;52.826;-1.192;2022-07-10T06:57:44;102132.53;;;15.17;45.23
46756;BME280;32506;52.826;-1.192;2022-07-10T07:00:10;102132.53;;;15.24;45.84
46756;BME280;32506;52.826;-1.192;2022-07-10T07:02:37;102135.44;;;15.29;45.54
46756;BME280;32506;52.826;-1.192;2022-07-10T07:05:03;102140.00;;;15.35;46.48
46756;BME280;32506;52.826;-1.192;2022-07-10T07:07:28;102137.31;;;15.42;46.50
46756;BME280;32506;52.826;-1.192;2022-07-10T07:09:54;102127.38;;;15.49;46.34
46756;BME280;32506;52.826;-1.192;2022-07-10T07:12:20;102135.22;;;15.57;46.64
46756;BME280;32506;52.826;-1.192;2022-07-10T07:14:45;102133.38;;;15.65;46.97
46756;BME280;32506;52.826;-1.192;2022-07-10T07:17:11;102130.69;;;15.71;47.90
46756;BME280;32506;52.826;-1.192;2022-07-10T07:19:39;102134.00;;;15.80;47.40
46756;BME280;32506;52.826;-1.192;2022-07-10T07:22:23;102129.22;;;15.89;48.07
46756;BME280;32506;52.826;-1.192;2022-07-10T07:25:08;102125.25;;;15.98;47.85
46756;BME280;32506;52.826;-1.192;2022-07-10T07:27:35;102119.63;;;16.06;47.59
46756;BME280;32506;52.826;-1.192;2022-07-10T07:30:09;102130.59;;;16.18;47.74
46756;BME280;32506;52.826;-1.192;2022-07-10T07:32:41;102120.38;;;16.27;48.11
46756;BME280;32506;52.826;-1.192;2022-07-10T07:35:08;102119.94;;;16.37;48.17
46756;BME280;32506;52.826;-1.192;2022-07-10T07:37:37;102120.31;;;16.47;48.24
46756;BME280;32506;52.826;-1.192;2022-07-10T07:40:05;102117.75;;;16.59;47.78
46756;BME280;32506;52.826;-1.192;2022-07-10T07:42:31;102119.97;;;16.69;47.35
46756;BME280;32506;52.826;-1.192;2022-07-10T07:44:57;102118.25;;;16.81;47.78
46756;BME280;32506;52.826;-1.192;2022-07-10T07:47:22;102113.00;;;16.93;48.07
46756;BME280;32506;52.826;-1.192;2022-07-10T07:49:48;102114.81;;;17.06;48.30
46756;BME280;32506;52.826;-1.192;2022-07-10T07:52:13;102121.16;;;17.18;48.00
46756;BME280;32506;52.826;-1.192;2022-07-10T07:54:39;102125.63;;;17.31;47.62
46756;BME280;32506;52.826;-1.192;2022-07-10T07:57:05;102119.91;;;17.46;48.29
46756;BME280;32506;52.826;-1.192;2022-07-10T07:59:31;102117.88;;;17.60;47.98
46756;BME280;32506;52.826;-1.192;2022-07-10T08:01:56;102118.38;;;17.75;47.47
46756;BME280;32506;52.826;-1.192;2022-07-10T08:04:21;102113.22;;;17.92;47.56
46756;BME280;32506;52.826;-1.192;2022-07-10T08:06:47;102105.56;;;18.08;47.65
46756;BME280;32506;52.826;-1.192;2022-07-10T08:09:12;102110.34;;;18.24;47.36
46756;BME280;32506;52.826;-1.192;2022-07-10T08:11:38;102109.72;;;18.41;48.12
46756;BME280;32506;52.826;-1.192;2022-07-10T08:14:03;102101.56;;;18.59;48.03
46756;BME280;32506;52.826;-1.192;2022-07-10T08:16:29;102102.56;;;18.77;47.92
46756;BME280;32506;52.826;-1.192;2022-07-10T08:18:54;102102.53;;;18.95;47.94
46756;BME280;32506;52.826;-1.192;2022-07-10T08:21:20;102103.28;;;19.15;47.44
46756;BME280;32506;52.826;-1.192;2022-07-10T08:23:47;102101.28;;;19.34;47.50
46756;BME280;32506;52.826;-1.192;2022-07-10T08:26:13;102104.72;;;19.53;47.33
46756;BME280;32506;52.826;-1.192;2022-07-10T08:28:38;102096.44;;;19.71;46.62
46756;BME280;32506;52.826;-1.192;2022-07-10T08:31:03;102102.38;;;19.92;46.56
46756;BME280;32506;52.826;-1.192;2022-07-10T08:33:29;102099.50;;;20.10;46.48
46756;BME280;32506;52.826;-1.192;2022-07-10T08:35:54;102095.53;;;20.30;46.57
46756;BME280;32506;52.826;-1.192;2022-07-10T08:38:24;102101.94;;;20.53;46.51
46756;BME280;32506;52.826;-1.192;2022-07-10T08:40:50;102095.03;;;20.74;46.64
46756;BME280;32506;52.826;-1.192;2022-07-10T08:43:16;102099.75;;;20.95;46.80
46756;BME280;32506;52.826;-1.192;2022-07-10T08:45:42;102090.28;;;21.15;46.23
46756;BME280;32506;52.826;-1.192;2022-07-10T08:48:09;102093.31;;;21.36;46.45
46756;BME280;32506;52.826;-1.192;2022-07-10T08:50:38;102099.66;;;21.58;46.31
46756;BME280;32506;52.826;-1.192;2022-07-10T08:53:12;102094.50;;;21.79;45.26
46756;BME280;32506;52.826;-1.192;2022-07-10T08:55:38;102086.84;;;21.98;45.18
46756;BME280;32506;52.826;-1.192;2022-07-10T08:58:05;102084.38;;;22.19;44.36
46756;BME280;32506;52.826;-1.192;2022-07-10T09:00:33;102072.59;;;22.35;43.88
46756;BME280;32506;52.826;-1.192;2022-07-10T09:02:58;102082.31;;;22.53;44.46
46756;BME280;32506;52.826;-1.192;2022-07-10T09:05:25;102076.22;;;22.73;43.53
46756;BME280;32506;52.826;-1.192;2022-07-10T09:07:52;102070.38;;;22.92;43.08
46756;BME280;32506;52.826;-1.192;2022-07-10T09:10:21;102077.09;;;23.11;43.36
46756;BME280;32506;52.826;-1.192;2022-07-10T09:12:57;102074.25;;;23.34;42.41
46756;BME280;32506;52.826;-1.192;2022-07-10T09:15:27;102073.28;;;23.55;42.39
46756;BME280;32506;52.826;-1.192;2022-07-10T09:17:57;102060.84;;;23.75;40.65
46756;BME280;32506;52.826;-1.192;2022-07-10T09:20:32;102063.69;;;23.95;40.79
46756;BME280;32506;52.826;-1.192;2022-07-10T09:23:00;102064.84;;;24.15;39.94
46756;BME280;32506;52.826;-1.192;2022-07-10T09:25:34;102055.88;;;24.35;39.31
46756;BME280;32506;52.826;-1.192;2022-07-10T09:27:59;102059.19;;;24.53;38.83
46756;BME280;32506;52.826;-1.192;2022-07-10T09:30:38;102051.03;;;24.73;38.43
46756;BME280;32506;52.826;-1.192;2022-07-10T09:33:20;102056.22;;;24.95;38.92
46756;BME280;32506;52.826;-1.192;2022-07-10T09:41:23;102056.69;;;25.54;37.63
46756;BME280;32506;52.826;-1.192;2022-07-10T09:43:57;102051.69;;;25.72;37.75
46756;BME280;32506;52.826;-1.192;2022-07-10T09:46:28;102046.69;;;25.89;37.28
46756;BME280;32506;52.826;-1.192;2022-07-10T09:49:13;102044.41;;;26.12;37.10
46756;BME280;32506;52.826;-1.192;2022-07-10T09:51:41;102040.47;;;26.28;36.27
46756;BME280;32506;52.826;-1.192;2022-07-10T09:54:08;102046.38;;;26.46;36.17
46756;BME280;32506;52.826;-1.192;2022-07-10T09:56:40;102044.63;;;26.60;35.61
46756;BME280;32506;52.826;-1.192;2022-07-10T09:59:18;102039.31;;;26.74;34.50
46756;BME280;32506;52.826;-1.192;2022-07-10T10:01:49;102040.06;;;26.85;34.24
46756;BME280;32506;52.826;-1.192;2022-07-10T10:04:15;102041.31;;;26.98;35.05
46756;BME280;32506;52.826;-1.192;2022-07-10T10:06:43;102032.97;;;27.08;33.70
46756;BME280;32506;52.826;-1.192;2022-07-10T10:09:19;102033.31;;;27.26;33.75
46756;BME280;32506;52.826;-1.192;2022-07-10T10:11:47;102036.25;;;27.40;33.58
46756;BME280;32506;52.826;-1.192;2022-07-10T10:14:15;102037.69;;;27.56;33.79
46756;BME280;32506;52.826;-1.192;2022-07-10T10:16:45;102029.78;;;27.74;32.95
46756;BME280;32506;52.826;-1.192;2022-07-10T10:19:13;102034.25;;;27.89;31.86
46756;BME280;32506;52.826;-1.192;2022-07-10T10:21:58;102021.44;;;28.03;32.87
46756;BME280;32506;52.826;-1.192;2022-07-10T10:24:25;102017.41;;;28.15;31.01
46756;BME280;32506;52.826;-1.192;2022-07-10T10:26:52;102018.38;;;28.24;30.96
46756;BME280;32506;52.826;-1.192;2022-07-10T10:29:18;102019.66;;;28.32;32.12
46756;BME280;32506;52.826;-1.192;2022-07-10T10:31:44;102023.84;;;28.43;31.37
46756;BME280;32506;52.826;-1.192;2022-07-10T10:34:09;102016.06;;;28.50;31.35
46756;BME280;32506;52.826;-1.192;2022-07-10T10:39:10;102014.84;;;28.75;31.39
46756;BME280;32506;52.826;-1.192;2022-07-10T10:41:46;102012.41;;;28.88;31.17
46756;BME280;32506;52.826;-1.192;2022-07-10T10:49:20;101996.13;;;29.19;30.60
46756;BME280;32506;52.826;-1.192;2022-07-10T10:51:59;102006.03;;;29.34;30.50
46756;BME280;32506;52.826;-1.192;2022-07-10T10:54:26;101997.06;;;29.42;30.02
46756;BME280;32506;52.826;-1.192;2022-07-10T10:57:15;101993.78;;;29.54;30.13
46756;BME280;32506;52.826;-1.192;2022-07-10T10:59:47;101988.78;;;29.56;29.69
46756;BME280;32506;52.826;-1.192;2022-07-10T11:02:34;101992.81;;;29.73;29.83
46756;BME280;32506;52.826;-1.192;2022-07-10T11:10:36;101986.59;;;30.18;29.49
46756;BME280;32506;52.826;-1.192;2022-07-10T11:15:43;101975.97;;;30.48;29.31
46756;BME280;32506;52.826;-1.192;2022-07-10T11:18:11;101983.66;;;30.59;28.77
46756;BME280;32506;52.826;-1.192;2022-07-10T11:25:59;101984.31;;;30.96;28.52
46756;BME280;32506;52.826;-1.192;2022-07-10T11:28:51;101978.53;;;31.07;27.29
46756;BME280;32506;52.826;-1.192;2022-07-10T11:31:18;101977.56;;;31.11;28.40
46756;BME280;32506;52.826;-1.192;2022-07-10T11:33:46;101977.09;;;31.18;27.91
46756;BME280;32506;52.826;-1.192;2022-07-10T11:36:18;101975.19;;;31.27;27.78
46756;BME280;32506;52.826;-1.192;2022-07-10T11:38:44;101970.16;;;31.38;27.44
46756;BME280;32506;52.826;-1.192;2022-07-10T11:44:05;101963.75;;;31.60;27.50
46756;BME280;32506;52.826;-1.192;2022-07-10T11:46:33;101966.69;;;31.64;27.90
46756;BME280;32506;52.826;-1.192;2022-07-10T11:49:04;101955.28;;;31.74;27.43
46756;BME280;32506;52.826;-1.192;2022-07-10T11:51:32;101967.66;;;31.86;27.09
46756;BME280;32506;52.826;-1.192;2022-07-10T11:54:19;101957.56;;;31.99;27.01
46756;BME280;32506;52.826;-1.192;2022-07-10T11:56:50;101955.31;;;32.01;26.82
46756;BME280;32506;52.826;-1.192;2022-07-10T11:59:18;101944.06;;;32.06;27.12
46756;BME280;32506;52.826;-1.192;2022-07-10T12:01:51;101945.19;;;32.13;26.77
46756;BME280;32506;52.826;-1.192;2022-07-10T12:04:19;101946.19;;;32.18;26.71
46756;BME280;32506;52.826;-1.192;2022-07-10T12:06:47;101944.06;;;32.23;26.81
46756;BME280;32506;52.826;-1.192;2022-07-10T12:09:15;101948.78;;;32.32;26.36
46756;BME280;32506;52.826;-1.192;2022-07-10T12:11:44;101938.97;;;32.43;26.04
46756;BME280;32506;52.826;-1.192;2022-07-10T12:14:16;101934.38;;;32.56;26.21
46756;BME280;32506;52.826;-1.192;2022-07-10T12:16:45;101925.56;;;32.62;25.41
46756;BME280;32506;52.826;-1.192;2022-07-10T12:19:13;101932.72;;;32.72;25.77
46756;BME280;32506;52.826;-1.192;2022-07-10T12:21:41;101936.09;;;32.78;25.73
46756;BME280;32506;52.826;-1.192;2022-07-10T12:24:07;101932.00;;;32.84;24.90
46756;BME280;32506;52.826;-1.192;2022-07-10T12:26:42;101935.72;;;32.88;24.90
46756;BME280;32506;52.826;-1.192;2022-07-10T12:29:25;101931.97;;;32.93;25.11
46756;BME280;32506;52.826;-1.192;2022-07-10T12:31:53;101924.00;;;32.91;25.30
46756;BME280;32506;52.826;-1.192;2022-07-10T12:34:35;101923.47;;;32.98;25.34
46756;BME280;32506;52.826;-1.192;2022-07-10T12:37:11;101930.44;;;33.04;25.06
46756;BME280;32506;52.826;-1.192;2022-07-10T12:39:39;101922.75;;;33.10;24.37
46756;BME280;32506;52.826;-1.192;2022-07-10T12:42:10;101916.34;;;33.18;24.38
46756;BME280;32506;52.826;-1.192;2022-07-10T12:44:43;101910.44;;;33.28;24.43
46756;BME280;32506;52.826;-1.192;2022-07-10T12:47:14;101907.47;;;33.34;24.17
46756;BME280;32506;52.826;-1.192;2022-07-10T12:52:33;101910.06;;;33.39;24.11
46756;BME280;32506;52.826;-1.192;2022-07-10T12:55:20;101908.47;;;33.50;23.85
46756;BME280;32506;52.826;-1.192;2022-07-10T12:57:51;101907.88;;;33.66;24.25
46756;BME280;32506;52.826;-1.192;2022-07-10T13:00:19;101903.69;;;33.81;23.56
46756;BME280;32506;52.826;-1.192;2022-07-10T13:02:46;101901.75;;;33.93;23.63
46756;BME280;32506;52.826;-1.192;2022-07-10T13:05:29;101903.06;;;34.08;23.02
46756;BME280;32506;52.826;-1.192;2022-07-10T13:08:14;101896.75;;;34.20;22.46
46756;BME280;32506;52.826;-1.192;2022-07-10T13:10:49;101899.44;;;34.29;22.95
46756;BME280;32506;52.826;-1.192;2022-07-10T13:13:15;101900.97;;;34.39;22.22
46756;BME280;32506;52.826;-1.192;2022-07-10T13:15:41;101894.50;;;34.47;22.36